• Join FlightAware (Why Join?)
  • Login
  • US Flag 
05:34PM EDT


 

Airport Tracker/Info


-or-


 

Live Flight TrackerFlight Track Log ✈ GJS6221 ✈ 13-Aug-2013 ✈ CYUL - KLGA

Flight Track Log - Related Links

Times and Time Zones

All times are in EDT time to prevent confusion due to time zone crossing. See the GJS6221 flight status page for this flight to view local times or setup timezone preferences in your user account.

Time Position Orientation Groundspeed Altitude Reporting Facility
EDT Latitude Longitude Course Direction KTS MPH feet Rate Location/Type
08:51AM 45.4475 -73.7536 189° South 442 509 1,300  Level Boston Center
08:52AM 45.4114 -73.8031 224° Southwest 318 366 3,700 2,460 Climbing Boston Center
08:53AM 45.3500 -73.8167 189° South 230 265 5,000 2,400 Climbing Montreal Center
08:54AM 45.3000 -73.8500 205° Southwest 260 299 7,400 2,640 Climbing Montreal Center
08:55AM 45.2167 -73.8833 196° South 270 311 10,300 2,460 Climbing Montreal Center
08:56AM 44.9964 -74.0740 207° Southwest  Level FlightAware Approximate
08:56AM 45.1333 -73.9333 203° Southwest 300 345 12,400  Level Montreal Center
08:57AM 44.9100 -74.0888 189° South  Level FlightAware Approximate
08:57AM 45.0500 -73.9500 188° South 330 380 14,200  Level Montreal Center
08:58AM 44.9667 -74.0000 203° Southwest 350 403 16,400 2,220 Climbing Montreal Center
08:59AM 44.8667 -74.0333 193° South 360 414 18,700 2,100 Climbing Montreal Center
08:59AM 44.8294 -74.0411 188° South 357 411 19,600 1,800 Climbing Boston Center
09:00AM 44.7339 -74.0267 174° South 378 435 21,500 1,860 Climbing Boston Center
09:01AM 44.6317 -74.0181 177° South 383 441 23,400 1,860 Climbing Boston Center
09:02AM 44.5278 -74.0067 176° South 383 441 25,300 1,680 Climbing Boston Center
09:03AM 44.4239 -73.9922 174° South 383 441 26,800 1,260 Climbing Boston Center
09:04AM 44.3197 -73.9836 177° South 383 441 27,800 840 Climbing Boston Center
09:05AM 44.2117 -73.9694 175° South 388 447 28,800 960 Climbing Boston Center
09:06AM 44.0681 -73.9542 176° South 393 452 30,000 600 Climbing Boston Center
09:07AM 43.9578 -73.9428 176° South 410 472 30,000  Level Boston Center
09:08AM 43.8453 -73.9256 174° South 410 472 30,000 -420 Level Boston Center
09:09AM 43.7350 -73.9142 176° South 404 465 29,200 -840 Descending Boston Center
09:10AM 43.6394 -73.9061 177° South 404 465 28,400 -960 Descending Boston Center
09:11AM 43.5292 -73.8919 175° South 404 465 27,300 -1,080 Descending Boston Center
09:12AM 43.4189 -73.8778 175° South 404 465 26,300 -1,020 Descending Boston Center
09:13AM 43.3086 -73.8667 176° South 404 465 25,400 -960 Descending Boston Center
09:14AM 43.1981 -73.8556 176° South 404 465 24,400 -1,020 Descending Boston Center
09:15AM 43.0900 -73.8444 176° South 404 465 23,400 -1,080 Descending Boston Center
09:16AM 42.9797 -73.8306 175° South 404 465 22,300 -780 Descending Boston Center
09:17AM 42.8692 -73.8197 176° South 404 465 21,900 -180 Descending Boston Center
09:18AM 42.7569 -73.8058 175° South 404 465 22,000  Climbing Boston Center
09:19AM 42.6447 -73.7864 173° South 404 465 22,000  Level Boston Center
09:20AM 42.5364 -73.7617 170° South 404 465 22,000 -600 Level Boston Center
09:21AM 42.4242 -73.7422 173° South 404 465 20,900 -960 Descending Boston Center
09:22AM 42.3244 -73.7206 171° South 394 453 20,100 -840 Descending Boston Center
09:23AM 42.2247 -73.6933 169° South 350 403 19,200 -600 Descending Boston Center
09:24AM 42.1414 -73.6833 175° South 345 397 19,000 -120 Descending Boston Center
09:25AM 42.0417 -73.6561 169° South 340 391 19,000  Level Boston Center
09:26AM 41.9481 -73.6375 172° South 340 391 19,000 -480 Level Boston Center
09:27AM 41.8608 -73.6025 163° South 338 389 18,100 -1,020 Descending Boston Center
09:28AM 41.7736 -73.5647 162° South 331 381 17,000 -1,320 Descending Boston Center
09:29AM 41.6908 -73.5242 160° South 326 375 15,600 -1,440 Descending Boston Center
09:32AM 41.6000 -73.6167 217° Southwest 277 319 12,500 -1,440 Descending New York TRACON
09:33AM 41.5333 -73.6833 217° Southwest 269 310 10,900 -1,440 Descending New York TRACON
09:34AM 41.4833 -73.7167 207° Southwest 260 299 9,700 -1,020 Descending New York TRACON
09:35AM 41.4167 -73.7500 201° Southwest 245 282 9,000 -840 Descending New York TRACON
09:36AM 41.3667 -73.7833 207° Southwest 234 269 8,100 -1,380 Descending New York TRACON
09:37AM 41.3000 -73.7667 169° South 255 293 6,400 -1,620 Descending New York TRACON
09:38AM 41.2500 -73.7167 143° Southeast 260 299 5,000 -1,140 Descending New York TRACON
09:38AM 41.1833 -73.6667 151° Southeast 257 296 4,300 -540 Descending New York TRACON
09:40AM 41.1167 -73.6333 159° South 250 288 4,000 -180 Descending New York TRACON
09:40AM 41.0667 -73.6500 194° South 245 282 4,000  Level New York TRACON
09:41AM 41.0167 -73.6833 207° Southwest 186 214 4,000 -420 Level New York TRACON
09:42AM 40.9667 -73.7167 207° Southwest 186 214 3,200 -540 Descending New York TRACON
09:43AM 40.9333 -73.7500 217° Southwest 179 206 3,000 -480 Descending New York TRACON
09:44AM 40.8833 -73.7833 207° Southwest 183 211 2,300 -840 Descending New York TRACON
09:45AM 40.8500 -73.8167 217° Southwest 154 177 1,400 -840 Descending New York TRACON
09:46AM 40.8167 -73.8500 217° Southwest 136 157 800 -720 Descending New York TRACON
09:48AM 40.7772 -73.8726 180° South  Level Estimated